Corbin Foss — WDB5265 — position and weather

sailwx.info

Track history (hours):
 
Tides and Currents Weather Stations Pressure Air Temp Water Temp Dewpoint Dewpoint Depression Visibility Wind Speed Wind Dir Waves Ship Positions

Corbin Foss

Owner: Foss International, Inc, Seattle, WA. More information available from US FCC via Universal Licensing System and Coast Guard Vessel Documentation Center.

Last reported at 2014-Oct-19 23:20 UTC. Time now 2014-Oct-22 13:50 UTC.
Position S 33°04' W 071°55'.

Type: Tow > 200 m length. MMSI: 366902220.

Date/timePositionNaut miles runAvg speedWind from/ knotsBaromVisibWave heightAir tempDewpointWater temp
2014-Oct-19 23:20S 33°04' W 071°55'3 3.8
2014-Oct-19 22:28S 33°02' W 071°52'4 4.2
2014-Oct-19 21:33S 32°60' W 071°48'4 4.1
2014-Oct-19 20:33S 32°58' W 071°44'4 4.0
2014-Oct-19 19:33S 32°58' W 071°39'4 3.7
2014-Oct-19 18:33S 33°00' W 071°36'0 0.2
2014-Oct-19 17:26S 33°00' W 071°35'0 0.0
2014-Oct-19 14:26S 33°00' W 071°36'0 0.0
2014-Oct-19 13:20S 33°00' W 071°36'0 0.0
2014-Oct-19 12:26S 33°00' W 071°36'0 0.1
2014-Oct-19 11:26S 33°00' W 071°36'0 0.4
2014-Oct-19 10:30S 33°00' W 071°35'3 0.2
2014-Oct-18 22:04S 33°02' W 071°38'0 0.0
2014-Oct-18 21:31S 33°02' W 071°38'0 0.0
2014-Oct-18 20:31S 33°02' W 071°38'0 0.0
2014-Oct-18 18:31S 33°02' W 071°38'0 0.0
2014-Oct-18 15:22S 33°02' W 071°38'0 0.0
2014-Oct-18 14:13S 33°02' W 071°38'0 0.0
2014-Oct-18 13:25S 33°02' W 071°38'0 0.0
2014-Oct-18 12:31S 33°02' W 071°38'3 2.7
2014-Oct-18 11:25S 33°00' W 071°35'0 0.3
2014-Oct-18 10:19S 33°00' W 071°36'0 0.0
2014-Oct-17 23:07S 33°00' W 071°36'0 0.0
2014-Oct-17 20:22S 33°00' W 071°36'0 0.0
2014-Oct-17 19:19S 33°00' W 071°36'0 0.0
2014-Oct-17 18:31S 33°00' W 071°36'0 0.0
2014-Oct-17 16:31S 33°00' W 071°36'0 0.0
2014-Oct-17 15:31S 33°00' W 071°36'0 0.0
2014-Oct-17 14:31S 33°00' W 071°36'0 0.0
2014-Oct-17 13:31S 33°00' W 071°36'0 0.0
2014-Oct-17 12:31S 33°00' W 071°36'0 0.0
2014-Oct-17 11:33S 33°00' W 071°36'0 0.0
2014-Oct-17 10:33S 33°00' W 071°36'0 0.0
2014-Oct-16 23:30S 33°00' W 071°36'0 0.5
2014-Oct-16 22:33S 32°60' W 071°35'0 0.0
2014-Oct-16 21:33S 32°60' W 071°35'0 0.0
2014-Oct-16 20:25S 32°60' W 071°35'0 0.0
2014-Oct-16 19:33S 32°60' W 071°35'0 0.0
2014-Oct-16 18:33S 32°60' W 071°35'0 0.0
2014-Oct-16 17:30S 32°60' W 071°35'0 0.0
2014-Oct-16 16:33S 32°60' W 071°35'0 0.0
2014-Oct-16 15:22S 32°60' W 071°35'0 0.0
2014-Oct-16 14:33S 32°60' W 071°35'0 0.0
2014-Oct-16 13:21S 32°60' W 071°35'0 0.0
2014-Oct-16 12:29S 32°60' W 071°35'0 0.4
2014-Oct-16 11:33S 32°59' W 071°35'1 0.7
2014-Oct-16 10:33S 32°59' W 071°36'2 2.0
2014-Oct-16 09:33S 32°59' W 071°38'3 3.1
2014-Oct-16 08:33S 32°56' W 071°40'4 3.8
2014-Oct-16 07:33S 32°53' W 071°41'3 3.1
2014-Oct-16 06:33S 32°50' W 071°42'3 3.3
2014-Oct-16 05:33S 32°46' W 071°42'  
Track history (hours):
 
Tides and Currents Weather Stations Pressure Air Temp Water Temp Dewpoint Dewpoint Depression Visibility Wind Speed Wind Dir Waves Ship Positions

Corbin Foss

Owner: Foss International, Inc, Seattle, WA. More information available from US FCC via Universal Licensing System and Coast Guard Vessel Documentation Center.

Last reported at 2014-Oct-19 23:20 UTC. Time now 2014-Oct-22 13:50 UTC.
Position S 33°04' W 071°55'.

Type: Tow > 200 m length. MMSI: 366902220.

Date/timePositionNaut miles runAvg speedWind from/ knotsBaromVisibWave heightAir tempDewpointWater temp
2014-Oct-19 23:20S 33°04' W 071°55'3 3.8
2014-Oct-19 22:28S 33°02' W 071°52'4 4.2
2014-Oct-19 21:33S 32°60' W 071°48'4 4.1
2014-Oct-19 20:33S 32°58' W 071°44'4 4.0
2014-Oct-19 19:33S 32°58' W 071°39'4 3.7
2014-Oct-19 18:33S 33°00' W 071°36'0 0.2
2014-Oct-19 17:26S 33°00' W 071°35'0 0.0
2014-Oct-19 14:26S 33°00' W 071°36'0 0.0
2014-Oct-19 13:20S 33°00' W 071°36'0 0.0
2014-Oct-19 12:26S 33°00' W 071°36'0 0.1
2014-Oct-19 11:26S 33°00' W 071°36'0 0.4
2014-Oct-19 10:30S 33°00' W 071°35'3 0.2
2014-Oct-18 22:04S 33°02' W 071°38'0 0.0
2014-Oct-18 21:31S 33°02' W 071°38'0 0.0
2014-Oct-18 20:31S 33°02' W 071°38'0 0.0
2014-Oct-18 18:31S 33°02' W 071°38'0 0.0
2014-Oct-18 15:22S 33°02' W 071°38'0 0.0
2014-Oct-18 14:13S 33°02' W 071°38'0 0.0
2014-Oct-18 13:25S 33°02' W 071°38'0 0.0
2014-Oct-18 12:31S 33°02' W 071°38'3 2.7
2014-Oct-18 11:25S 33°00' W 071°35'0 0.3
2014-Oct-18 10:19S 33°00' W 071°36'0 0.0
2014-Oct-17 23:07S 33°00' W 071°36'0 0.0
2014-Oct-17 20:22S 33°00' W 071°36'0 0.0
2014-Oct-17 19:19S 33°00' W 071°36'0 0.0
2014-Oct-17 18:31S 33°00' W 071°36'0 0.0
2014-Oct-17 16:31S 33°00' W 071°36'0 0.0
2014-Oct-17 15:31S 33°00' W 071°36'0 0.0
2014-Oct-17 14:31S 33°00' W 071°36'0 0.0
2014-Oct-17 13:31S 33°00' W 071°36'0 0.0
2014-Oct-17 12:31S 33°00' W 071°36'0 0.0
2014-Oct-17 11:33S 33°00' W 071°36'0 0.0
2014-Oct-17 10:33S 33°00' W 071°36'0 0.0
2014-Oct-16 23:30S 33°00' W 071°36'0 0.5
2014-Oct-16 22:33S 32°60' W 071°35'0 0.0
2014-Oct-16 21:33S 32°60' W 071°35'0 0.0
2014-Oct-16 20:25S 32°60' W 071°35'0 0.0
2014-Oct-16 19:33S 32°60' W 071°35'0 0.0
2014-Oct-16 18:33S 32°60' W 071°35'0 0.0
2014-Oct-16 17:30S 32°60' W 071°35'0 0.0
2014-Oct-16 16:33S 32°60' W 071°35'0 0.0
2014-Oct-16 15:22S 32°60' W 071°35'0 0.0
2014-Oct-16 14:33S 32°60' W 071°35'0 0.0
2014-Oct-16 13:21S 32°60' W 071°35'0 0.0
2014-Oct-16 12:29S 32°60' W 071°35'0 0.4
2014-Oct-16 11:33S 32°59' W 071°35'1 0.7
2014-Oct-16 10:33S 32°59' W 071°36'2 2.0
2014-Oct-16 09:33S 32°59' W 071°38'3 3.1
2014-Oct-16 08:33S 32°56' W 071°40'4 3.8
2014-Oct-16 07:33S 32°53' W 071°41'3 3.1
2014-Oct-16 06:33S 32°50' W 071°42'3 3.3
2014-Oct-16 05:33S 32°46' W 071°42'  

Dump ship's entire track history